Time;durP1;ratioP1;P1;durP2;ratioP2;P2;SDS_P1;SDS_P2;PMS_P1;PMS_P2;Temp;Humidity;BMP_temperature;BMP_pressure;BME280_temperature;BME280_humidity;BME280_pressure;Samples;Min_cycle;Max_cycle;Signal;HPM_P1;HPM_P2
2022/06/03 00:02:38;;;;;;;0.50;0.40;;;24.00;45.80;;;;;;6306897;28;20884;-53
2022/06/03 00:05:57;;;;;;;0.47;0.40;;;23.90;45.70;;;;;;6299763;28;20039;-56
2022/06/03 00:09:19;;;;;;;0.60;0.40;;;23.90;45.70;;;;;;6302210;27;20075;-51
2022/06/03 00:12:38;;;;;;;0.75;0.47;;;23.90;45.70;;;;;;6297510;27;20913;-52
2022/06/03 00:15:57;;;;;;;0.63;0.30;;;23.90;45.70;;;;;;6284334;28;20035;-56
2022/06/03 00:19:19;;;;;;;0.50;0.40;;;23.80;45.60;;;;;;6299758;27;20059;-50
2022/06/03 00:22:39;;;;;;;0.38;0.30;;;23.90;45.60;;;;;;6301508;27;20047;-53
2022/06/03 00:25:59;;;;;;;0.82;0.40;;;23.90;45.70;;;;;;6300827;27;20046;-52
2022/06/03 00:29:13;;;;;;;0.47;0.45;;;23.90;45.70;;;;;;6305924;28;20047;-54
2022/06/03 00:32:37;;;;;;;0.43;0.43;;;23.70;45.50;;;;;;6303165;27;20170;-49
2022/06/03 00:35:48;;;;;;;0.50;0.50;;;23.90;45.60;;;;;;6302339;28;20166;-55
2022/06/03 00:39:03;;;;;;;0.73;0.40;;;23.80;45.60;;;;;;6300606;28;20035;-53
2022/06/03 00:42:27;;;;;;;0.40;0.40;;;23.90;45.70;;;;;;6300154;27;20200;-51
2022/06/03 00:45:46;;;;;;;0.43;0.30;;;23.80;45.50;;;;;;6303545;27;20046;-52
2022/06/03 00:49:02;;;;;;;0.75;0.50;;;23.90;45.60;;;;;;6287526;28;20039;-54
2022/06/03 00:52:26;;;;;;;1.17;0.60;;;23.90;45.60;;;;;;6304601;27;20043;-52
2022/06/03 00:55:50;;;;;;;0.50;0.40;;;23.80;45.60;;;;;;6297551;27;20043;-55
2022/06/03 00:59:02;;;;;;;0.50;0.30;;;23.80;45.50;;;;;;6299343;28;20284;-55
2022/06/03 01:02:19;;;;;;;0.47;0.47;;;23.90;45.50;;;;;;6281704;28;20032;-53
2022/06/03 01:05:32;;;;;;;0.45;0.40;;;23.90;45.60;;;;;;6301508;28;20047;-53
2022/06/03 01:08:48;;;;;;;0.30;0.30;;;23.60;45.40;;;;;;6283848;28;20035;-54
2022/06/03 01:12:05;;;;;;;0.40;0.40;;;23.80;45.50;;;;;;6285680;28;20127;-53
2022/06/03 01:15:19;;;;;;;0.40;0.40;;;23.80;45.50;;;;;;6281594;27;20050;-53
2022/06/03 01:18:36;;;;;;;0.30;0.30;;;23.70;45.40;;;;;;6276440;28;20449;-48
2022/06/03 01:21:47;;;;;;;0.50;0.40;;;23.70;45.50;;;;;;6287464;27;20111;-52
2022/06/03 01:25:05;;;;;;;0.65;0.40;;;23.70;45.40;;;;;;6269818;27;20132;-52
2022/06/03 01:28:35;;;;;;;0.30;0.30;;;23.70;45.50;;;;;;6291159;28;20052;-51
2022/06/03 01:31:55;;;;;;;0.40;0.40;;;23.60;45.40;;;;;;6293015;27;20665;-52
2022/06/03 01:35:20;;;;;;;0.30;0.30;;;23.70;45.50;;;;;;6273125;28;20078;-53
2022/06/03 01:38:38;;;;;;;0.40;0.40;;;23.70;45.50;;;;;;6290248;28;20338;-55
2022/06/03 01:42:15;;;;;;;0.40;0.35;;;23.70;45.40;;;;;;6291219;28;20039;-51
2022/06/03 01:45:36;;;;;;;0.40;0.40;;;23.50;45.40;;;;;;6275524;28;20143;-53
2022/06/03 01:48:59;;;;;;;0.33;0.33;;;23.70;45.40;;;;;;6295357;28;20464;-53
2022/06/03 01:52:29;;;;;;;0.30;0.30;;;23.70;45.40;;;;;;6297007;27;20418;-52
2022/06/03 01:55:58;;;;;;;0.43;0.32;;;23.60;45.30;;;;;;6281961;27;20840;-52
2022/06/03 01:59:18;;;;;;;0.60;0.43;;;23.60;45.30;;;;;;6282205;28;20697;-54
2022/06/03 02:02:38;;;;;;;0.40;0.40;;;23.60;45.30;;;;;;6295268;28;20166;-57
2022/06/03 02:05:57;;;;;;;0.32;0.30;;;23.60;45.30;;;;;;6288181;28;20244;-54
2022/06/03 02:09:25;;;;;;;0.40;0.30;;;23.60;45.20;;;;;;6260315;27;20346;-52
2022/06/03 02:12:51;;;;;;;0.38;0.25;;;23.50;45.10;;;;;;6293247;27;20415;-54
2022/06/03 02:16:22;;;;;;;0.68;0.50;;;23.60;45.20;;;;;;6266405;28;20044;-53
2022/06/03 02:19:41;;;;;;;0.22;0.20;;;23.60;45.10;;;;;;6294129;28;20557;-54
2022/06/03 02:23:06;;;;;;;0.40;0.30;;;23.50;45.00;;;;;;6295363;28;20355;-52
2022/06/03 02:26:29;;;;;;;0.40;0.30;;;23.60;45.30;;;;;;6294238;28;20040;-52
2022/06/03 02:33:28;;;;;;;0.30;0.30;;;23.60;45.00;;;;;;6290910;27;20323;-54
2022/06/03 02:36:49;;;;;;;0.30;0.30;;;23.60;44.90;;;;;;6276168;28;20190;-53
2022/06/03 02:40:08;;;;;;;0.60;0.40;;;23.50;44.80;;;;;;6273382;27;20430;-54
2022/06/03 02:43:37;;;;;;;0.60;0.38;;;23.60;44.80;;;;;;6294234;28;20332;-53
2022/06/03 02:46:59;;;;;;;0.43;0.43;;;23.50;44.70;;;;;;6295309;28;20059;-53
2022/06/03 02:50:23;;;;;;;0.35;0.30;;;23.50;44.70;;;;;;6294353;28;20516;-54
2022/06/03 02:54:00;;;;;;;0.45;0.43;;;23.50;44.70;;;;;;6295603;28;20657;-55
2022/06/03 02:57:19;;;;;;;0.55;0.50;;;23.50;44.60;;;;;;6289324;27;20203;-48
2022/06/03 03:00:42;;;;;;;0.40;0.40;;;23.60;44.70;;;;;;6293438;28;20154;-52
2022/06/03 03:04:08;;;;;;;0.30;0.30;;;23.50;44.60;;;;;;6290789;28;20051;-54
2022/06/03 03:07:30;;;;;;;0.50;0.30;;;23.50;44.60;;;;;;6277711;28;20211;-53
2022/06/03 03:10:54;;;;;;;0.35;0.35;;;23.50;44.60;;;;;;6286301;28;20153;-53
2022/06/03 03:14:19;;;;;;;0.30;0.30;;;23.70;44.70;;;;;;6288586;28;20047;-54
2022/06/03 03:17:44;;;;;;;0.30;0.20;;;23.50;44.60;;;;;;6297771;27;20054;-55
2022/06/03 03:21:08;;;;;;;0.38;0.30;;;22.70;44.20;;;;;;6300869;28;20149;-57
2022/06/03 03:24:29;;;;;;;0.20;0.20;;;23.40;44.50;;;;;;6303746;27;20071;-52
2022/06/03 03:27:46;;;;;;;0.38;0.38;;;23.50;44.60;;;;;;6297720;28;20370;-50
2022/06/03 03:31:02;;;;;;;0.68;0.40;;;23.50;44.70;;;;;;6299964;27;20044;-51
2022/06/03 03:34:15;;;;;;;0.40;0.30;;;23.50;44.70;;;;;;6296737;27;20603;-52
2022/06/03 03:37:40;;;;;;;0.45;0.40;;;23.20;44.50;;;;;;6296176;27;20545;-54
2022/06/03 03:41:05;;;;;;;0.57;0.43;;;23.40;44.60;;;;;;6297080;28;20149;-48
2022/06/03 03:44:31;;;;;;;0.50;0.40;;;23.40;44.60;;;;;;6296783;28;20439;-52
2022/06/03 03:48:02;;;;;;;0.30;0.30;;;23.30;44.60;;;;;;6300011;28;20146;-52
2022/06/03 03:51:26;;;;;;;0.28;0.28;;;23.40;44.70;;;;;;6282573;27;20431;-56
2022/06/03 03:55:09;;;;;;;0.60;0.40;;;23.40;44.60;;;;;;6301634;28;20040;-53
2022/06/03 03:58:40;;;;;;;0.40;0.38;;;23.30;44.60;;;;;;6291643;27;20039;-54
2022/06/03 04:02:05;;;;;;;0.30;0.30;;;23.40;44.70;;;;;;6295039;28;20460;-55
2022/06/03 04:05:35;;;;;;;0.40;0.40;;;23.30;44.60;;;;;;6275573;28;20471;-49
2022/06/03 04:08:59;;;;;;;0.38;0.38;;;23.50;44.70;;;;;;6296974;28;20275;-52
2022/06/03 04:12:29;;;;;;;0.47;0.43;;;23.30;44.60;;;;;;6275514;28;20044;-53
2022/06/03 04:16:02;;;;;;;0.60;0.40;;;23.40;44.60;;;;;;6292847;27;20544;-54
2022/06/03 04:19:29;;;;;;;0.50;0.30;;;23.20;44.40;;;;;;6290017;28;20052;-54
2022/06/03 04:23:00;;;;;;;0.55;0.40;;;23.30;44.50;;;;;;6287681;28;20720;-53
2022/06/03 04:26:28;;;;;;;0.40;0.30;;;23.30;44.40;;;;;;6287226;28;20203;-55
2022/06/03 04:29:55;;;;;;;0.60;0.40;;;23.30;44.30;;;;;;6277666;27;20040;-53
2022/06/03 04:33:17;;;;;;;0.40;0.40;;;23.30;44.30;;;;;;6287556;28;20573;-54
2022/06/03 04:36:39;;;;;;;0.30;0.30;;;23.30;44.20;;;;;;6286993;28;20706;-52
2022/06/03 04:39:58;;;;;;;0.40;0.30;;;23.20;44.20;;;;;;6289426;28;20402;-53
2022/06/03 04:43:30;;;;;;;0.50;0.40;;;23.30;44.20;;;;;;6287134;27;20260;-56
2022/06/03 04:47:04;;;;;;;0.50;0.40;;;23.10;44.10;;;;;;6291044;27;20558;-54
2022/06/03 04:50:38;;;;;;;0.30;0.30;;;23.30;44.20;;;;;;6274305;28;20343;-54
2022/06/03 04:54:05;;;;;;;0.40;0.35;;;23.30;44.20;;;;;;6269311;28;20516;-54
2022/06/03 04:57:37;;;;;;;0.30;0.30;;;23.20;44.20;;;;;;6293340;27;20086;-54
2022/06/03 05:01:17;;;;;;;0.20;0.20;;;23.30;44.30;;;;;;6279882;28;20467;-52
2022/06/03 05:04:46;;;;;;;0.30;0.30;;;23.20;44.30;;;;;;6286805;28;20802;-53
2022/06/03 05:08:10;;;;;;;0.57;0.32;;;23.20;44.30;;;;;;6282858;27;20039;-53
2022/06/03 05:11:32;;;;;;;0.32;0.30;;;23.20;44.30;;;;;;6282859;28;20143;-55
2022/06/03 05:15:00;;;;;;;0.40;0.32;;;23.20;44.30;;;;;;6295444;27;21017;-55
2022/06/03 05:18:24;;;;;;;0.20;0.20;;;23.20;44.30;;;;;;6286672;28;20138;-53
2022/06/03 05:21:51;;;;;;;0.22;0.22;;;23.20;44.30;;;;;;6296887;27;20138;-54
2022/06/03 05:25:17;;;;;;;0.20;0.20;;;23.30;44.40;;;;;;6282098;28;21004;-54
2022/06/03 05:28:39;;;;;;;0.60;0.40;;;23.20;44.30;;;;;;6278382;28;20044;-54
2022/06/03 05:32:11;;;;;;;0.30;0.30;;;23.30;44.30;;;;;;6282298;28;20155;-51
2022/06/03 05:35:38;;;;;;;0.43;0.40;;;23.20;44.30;;;;;;6301194;27;20216;-53
2022/06/03 05:39:21;;;;;;;0.50;0.40;;;23.20;44.20;;;;;;6300046;27;20043;-55
2022/06/03 05:42:40;;;;;;;0.45;0.40;;;23.20;44.20;;;;;;6293750;27;21179;-54
2022/06/03 05:46:00;;;;;;;0.30;0.30;;;23.20;44.30;;;;;;6292054;27;20151;-55
2022/06/03 05:49:10;;;;;;;0.20;0.20;;;23.20;44.20;;;;;;6276920;28;20075;-52
2022/06/03 05:52:31;;;;;;;0.47;0.40;;;23.20;44.20;;;;;;6294298;28;20134;-55
2022/06/03 05:55:46;;;;;;;0.40;0.40;;;23.20;44.20;;;;;;6297242;27;20158;-52
2022/06/03 05:58:57;;;;;;;0.30;0.30;;;23.30;44.30;;;;;;6297662;28;20380;-56
2022/06/03 06:02:12;;;;;;;0.40;0.20;;;23.20;44.30;;;;;;6288099;28;20170;-56
2022/06/03 06:05:26;;;;;;;0.38;0.30;;;23.20;44.30;;;;;;6296009;28;21273;-55
2022/06/03 06:08:36;;;;;;;0.30;0.25;;;23.20;44.30;;;;;;6279551;28;20364;-56
2022/06/03 06:11:50;;;;;;;0.47;0.40;;;23.20;44.30;;;;;;6279917;28;20045;-53
2022/06/03 06:15:07;;;;;;;0.50;0.30;;;23.20;44.40;;;;;;6279102;27;20089;-56
2022/06/03 06:18:20;;;;;;;0.45;0.30;;;23.20;44.30;;;;;;6271660;27;20984;-55
2022/06/03 06:21:42;;;;;;;0.43;0.30;;;23.20;44.30;;;;;;6258344;27;20167;-54
2022/06/03 06:24:51;;;;;;;0.50;0.35;;;23.20;44.40;;;;;;6262343;28;20058;-54
2022/06/03 06:28:03;;;;;;;0.40;0.30;;;23.20;44.40;;;;;;6264528;28;20394;-58
2022/06/03 06:31:21;;;;;;;0.45;0.30;;;23.30;44.50;;;;;;6239568;28;20039;-52
2022/06/03 06:34:54;;;;;;;0.60;0.30;;;23.20;44.40;;;;;;6250713;27;20054;-56
2022/06/03 06:38:06;;;;;;;1.33;0.38;;;23.10;44.40;;;;;;6256907;27;22015;-53
2022/06/03 06:41:21;;;;;;;0.88;0.30;;;23.30;44.50;;;;;;6243835;27;20338;-52
2022/06/03 06:44:37;;;;;;;0.80;0.50;;;23.20;44.60;;;;;;6231521;28;20258;-52
2022/06/03 06:47:46;;;;;;;1.13;0.50;;;23.30;44.80;;;;;;6220029;27;20146;-53
2022/06/03 06:50:55;;;;;;;0.40;0.38;;;23.10;44.70;;;;;;6187922;27;20841;-53
2022/06/03 06:54:01;;;;;;;0.55;0.40;;;23.20;44.80;;;;;;6190126;27;20424;-57
2022/06/03 06:57:06;;;;;;;0.20;0.20;;;23.40;45.00;;;;;;6159021;27;20040;-55
2022/06/03 07:00:18;;;;;;;0.50;0.38;;;23.20;44.90;;;;;;6111423;27;20721;-57
2022/06/03 07:03:38;;;;;;;3.58;0.40;;;23.30;45.10;;;;;;6107645;27;20519;-56
2022/06/03 07:06:43;;;;;;;0.32;0.30;;;23.30;45.10;;;;;;6076343;27;20390;-53
2022/06/03 07:09:53;;;;;;;0.70;0.70;;;23.30;45.20;;;;;;6103999;27;21469;-54
2022/06/03 07:13:01;;;;;;;0.60;0.60;;;23.20;45.30;;;;;;6155345;27;20159;-55
2022/06/03 07:16:10;;;;;;;2.00;0.50;;;23.30;45.40;;;;;;6102830;27;20276;-57
2022/06/03 07:22:37;;;;;;;0.50;0.50;;;23.40;45.70;;;;;;6131114;27;20935;-57
2022/06/03 07:25:44;;;;;;;0.30;0.30;;;23.40;45.90;;;;;;6086987;27;20524;-58
2022/06/03 07:28:55;;;;;;;0.85;0.40;;;23.30;46.00;;;;;;6100651;27;20789;-54
2022/06/03 07:32:02;;;;;;;0.47;0.30;;;23.50;46.20;;;;;;6155082;27;20047;-55
2022/06/03 07:35:11;;;;;;;0.68;0.40;;;23.40;46.30;;;;;;6135864;27;20345;-53
2022/06/03 07:38:24;;;;;;;0.75;0.47;;;23.50;46.40;;;;;;6116313;27;20054;-54
2022/06/03 07:41:33;;;;;;;1.60;0.65;;;23.60;46.60;;;;;;6106067;27;20848;-55
2022/06/03 07:44:46;;;;;;;0.95;0.30;;;23.40;46.50;;;;;;6119935;27;20488;-51
2022/06/03 07:47:49;;;;;;;1.38;0.50;;;23.50;47.10;;;;;;6126128;27;20157;-57
2022/06/03 07:50:56;;;;;;;1.15;0.60;;;23.60;46.80;;;;;;6126787;27;20468;-55
2022/06/03 07:54:05;;;;;;;0.70;0.45;;;23.60;47.00;;;;;;6146746;27;20051;-56
2022/06/03 07:57:10;;;;;;;0.63;0.30;;;23.50;47.10;;;;;;6108128;27;22232;-56
2022/06/03 08:00:15;;;;;;;0.50;0.32;;;23.60;47.10;;;;;;6122592;27;20064;-56
2022/06/03 08:03:20;;;;;;;0.80;0.30;;;23.40;47.20;;;;;;6108519;27;20054;-51
2022/06/03 08:10:56;;;;;;;0.70;0.57;;;23.50;47.40;;;;;;6142065;27;20332;-54
2022/06/03 08:13:09;;;;;;;0.70;0.40;;;23.60;48.30;;;;;;6174095;27;21350;-53
2022/06/03 08:16:14;;;;;;;0.73;0.50;;;23.50;48.90;;;;;;6131728;27;21057;-56
2022/06/03 08:19:20;;;;;;;0.70;0.45;;;23.60;49.60;;;;;;6066766;27;20424;-56
2022/06/03 08:22:24;;;;;;;0.73;0.45;;;23.80;50.20;;;;;;6102815;27;20045;-54
2022/06/03 08:25:29;;;;;;;0.50;0.40;;;23.50;50.40;;;;;;6155831;27;38149;-58
2022/06/03 08:28:34;;;;;;;0.82;0.50;;;23.70;51.10;;;;;;6153548;27;20047;-57
2022/06/03 08:31:36;;;;;;;1.00;0.68;;;23.60;51.60;;;;;;6156667;27;20483;-55
2022/06/03 08:34:42;;;;;;;0.68;0.60;;;23.70;51.90;;;;;;6100464;27;20078;-57
2022/06/03 08:37:56;;;;;;;0.75;0.40;;;23.50;52.20;;;;;;6110657;27;21469;-56
2022/06/03 08:41:11;;;;;;;0.45;0.38;;;23.60;52.60;;;;;;6151756;27;21634;-58
2022/06/03 08:44:25;;;;;;;1.90;0.50;;;23.80;53.10;;;;;;6164229;27;20051;-58
2022/06/03 08:47:36;;;;;;;0.50;0.43;;;23.60;53.30;;;;;;6147189;27;20043;-57
2022/06/03 08:50:42;;;;;;;0.40;0.40;;;23.60;53.50;;;;;;6154198;27;20162;-59
2022/06/03 08:53:53;;;;;;;0.70;0.50;;;23.60;53.70;;;;;;6165442;27;21505;-56
2022/06/03 08:57:01;;;;;;;1.42;0.50;;;23.60;53.70;;;;;;6174683;27;20043;-58
2022/06/03 09:00:08;;;;;;;0.65;0.47;;;23.50;53.60;;;;;;6156279;27;20486;-57
2022/06/03 09:03:16;;;;;;;0.60;0.40;;;23.60;53.70;;;;;;6149216;27;20267;-58
2022/06/03 09:06:34;;;;;;;0.50;0.30;;;23.60;53.80;;;;;;6145849;27;22555;-58
2022/06/03 09:09:43;;;;;;;0.50;0.50;;;23.60;53.70;;;;;;6151883;27;20188;-56
2022/06/03 09:12:54;;;;;;;0.88;0.40;;;23.70;53.70;;;;;;6182051;27;20047;-58
2022/06/03 09:15:57;;;;;;;0.30;0.30;;;23.60;53.70;;;;;;6137090;27;20168;-60
2022/06/03 09:19:04;;;;;;;0.30;0.30;;;23.60;53.60;;;;;;6177573;27;20086;-57
2022/06/03 09:22:13;;;;;;;0.55;0.40;;;23.60;53.70;;;;;;6163509;27;20082;-57
2022/06/03 09:25:17;;;;;;;0.50;0.50;;;23.60;53.60;;;;;;6140673;27;20775;-57
2022/06/03 09:28:24;;;;;;;1.25;0.40;;;23.50;53.60;;;;;;6154671;27;20172;-57
2022/06/03 09:31:27;;;;;;;0.50;0.50;;;23.50;53.80;;;;;;6118424;27;20263;-58
2022/06/03 09:34:39;;;;;;;0.50;0.50;;;23.50;53.80;;;;;;6179965;27;22938;-54
2022/06/03 09:37:44;;;;;;;0.60;0.60;;;23.60;54.20;;;;;;6147558;27;20171;-58
2022/06/03 09:40:48;;;;;;;0.85;0.57;;;23.60;54.20;;;;;;6129506;27;20059;-57
2022/06/03 09:43:53;;;;;;;0.40;0.40;;;23.70;54.50;;;;;;6150544;27;20256;-58
2022/06/03 09:46:58;;;;;;;0.65;0.57;;;23.70;54.60;;;;;;6156675;27;21581;-56
2022/06/03 09:50:00;;;;;;;0.50;0.40;;;23.60;54.60;;;;;;6152285;27;20333;-57
2022/06/03 09:53:07;;;;;;;0.63;0.50;;;22.90;54.40;;;;;;6135892;27;20711;-58
2022/06/03 09:56:18;;;;;;;0.40;0.38;;;23.50;54.90;;;;;;6091831;27;22159;-57
2022/06/03 09:59:21;;;;;;;0.38;0.38;;;23.60;55.00;;;;;;6088024;27;20725;-55
2022/06/03 10:02:23;;;;;;;0.57;0.50;;;23.70;55.20;;;;;;6092043;27;21319;-58
2022/06/03 10:05:25;;;;;;;0.63;0.55;;;23.70;55.30;;;;;;6115768;27;21695;-57
2022/06/03 10:12:48;;;;;;;0.60;0.60;;;23.50;55.40;;;;;;6087522;27;20377;-57
2022/06/03 10:18:35;;;;;;;0.90;0.40;;;23.60;56.40;;;;;;6122314;27;21088;-58
2022/06/03 10:21:36;;;;;;;0.95;0.60;;;23.70;56.70;;;;;;6142256;27;21462;-56
2022/06/03 10:24:38;;;;;;;0.68;0.63;;;23.70;57.00;;;;;;6180368;27;20158;-59
2022/06/03 10:27:40;;;;;;;0.40;0.30;;;23.70;57.40;;;;;;6181918;27;20043;-59
2022/06/03 10:30:43;;;;;;;0.50;0.50;;;23.70;57.70;;;;;;6174049;27;21685;-58
2022/06/03 10:33:52;;;;;;;0.80;0.73;;;23.70;58.10;;;;;;6184713;27;20066;-59
2022/06/03 10:36:56;;;;;;;0.90;0.68;;;23.70;58.40;;;;;;6182234;27;20132;-59
2022/06/03 10:39:58;;;;;;;0.93;0.68;;;23.80;58.80;;;;;;6196253;27;20178;-59
2022/06/03 10:43:02;;;;;;;0.70;0.60;;;23.80;58.70;;;;;;6234105;27;20174;-58
2022/06/03 10:46:09;;;;;;;0.52;0.50;;;23.70;58.90;;;;;;6207985;27;20043;-59
2022/06/03 10:49:12;;;;;;;1.23;0.55;;;23.70;59.10;;;;;;6216110;27;20064;-58
2022/06/03 11:02:14;;;;;;;0.50;0.40;;;23.80;59.20;;;;;;6226101;27;20967;-59
2022/06/03 11:05:24;;;;;;;0.75;0.73;;;23.80;59.20;;;;;;6204972;27;20127;-57
2022/06/03 11:08:26;;;;;;;0.98;0.60;;;23.60;59.30;;;;;;6184119;27;20070;-59
2022/06/03 11:11:35;;;;;;;0.68;0.50;;;23.60;59.30;;;;;;6215728;27;20070;-58
2022/06/03 11:14:39;;;;;;;0.75;0.60;;;23.70;59.60;;;;;;6169972;27;20051;-58
2022/06/03 11:17:41;;;;;;;0.70;0.50;;;23.80;59.70;;;;;;6176272;27;20078;-59
2022/06/03 11:20:45;;;;;;;0.75;0.55;;;23.70;59.80;;;;;;6204812;27;20047;-56
2022/06/03 11:23:47;;;;;;;0.82;0.60;;;23.70;59.90;;;;;;6193148;27;21182;-57
2022/06/03 11:26:49;;;;;;;0.70;0.70;;;23.90;60.00;;;;;;6213011;27;21444;-58
2022/06/03 11:29:55;;;;;;;0.73;0.60;;;23.70;60.00;;;;;;6218308;27;20040;-57
2022/06/03 11:33:02;;;;;;;0.55;0.55;;;23.80;60.00;;;;;;6210549;27;20112;-58
2022/06/03 11:36:07;;;;;;;0.60;0.40;;;23.70;60.00;;;;;;6181747;27;20910;-55
2022/06/03 11:39:14;;;;;;;0.63;0.60;;;23.80;60.00;;;;;;6210888;27;20046;-57
2022/06/03 11:42:22;;;;;;;0.73;0.45;;;23.90;60.20;;;;;;6184638;27;20051;-55
2022/06/03 11:45:33;;;;;;;0.47;0.43;;;23.80;60.10;;;;;;6170506;27;20252;-53
2022/06/03 11:48:37;;;;;;;0.57;0.50;;;23.80;60.20;;;;;;6210848;27;20054;-52
2022/06/03 11:51:39;;;;;;;0.70;0.70;;;23.60;60.00;;;;;;6164529;27;20043;-53
2022/06/03 11:54:41;;;;;;;0.75;0.68;;;23.80;60.00;;;;;;6174734;27;21320;-54
2022/06/03 11:57:50;;;;;;;0.50;0.40;;;23.80;60.00;;;;;;6187989;27;20150;-55
2022/06/03 12:00:57;;;;;;;0.52;0.50;;;23.80;60.00;;;;;;6169902;27;20050;-56
2022/06/03 12:04:04;;;;;;;0.60;0.52;;;23.80;60.00;;;;;;6116894;27;20047;-54
2022/06/03 12:07:17;;;;;;;0.50;0.50;;;23.80;60.00;;;;;;6149753;27;20039;-56
2022/06/03 12:10:24;;;;;;;0.85;0.60;;;23.90;60.20;;;;;;6133873;27;20045;-58
2022/06/03 12:13:29;;;;;;;0.40;0.40;;;23.80;60.30;;;;;;6146388;27;20056;-57
2022/06/03 12:16:52;;;;;;;0.57;0.50;;;23.80;60.60;;;;;;6135980;27;20050;-56
2022/06/03 12:19:54;;;;;;;0.73;0.55;;;23.80;60.70;;;;;;6148373;27;22480;-54
2022/06/03 12:22:57;;;;;;;0.60;0.60;;;23.90;61.00;;;;;;6150069;27;21074;-57
2022/06/03 12:26:09;;;;;;;0.60;0.50;;;23.80;60.60;;;;;;6148825;27;20150;-58
2022/06/03 12:29:17;;;;;;;0.70;0.60;;;23.80;60.60;;;;;;6132842;27;20043;-51
2022/06/03 12:32:25;;;;;;;0.57;0.52;;;23.90;60.70;;;;;;6099390;27;20503;-53
2022/06/03 12:35:56;;;;;;;0.60;0.60;;;23.80;60.50;;;;;;6129071;27;20052;-53
2022/06/03 12:39:27;;;;;;;0.52;0.52;;;23.90;60.60;;;;;;6158993;27;20050;-56
2022/06/03 12:42:38;;;;;;;1.88;0.50;;;23.90;60.40;;;;;;6148394;27;20129;-56
2022/06/03 12:45:41;;;;;;;0.70;0.60;;;23.80;60.30;;;;;;6085052;27;20492;-59
2022/06/03 12:48:51;;;;;;;1.55;0.63;;;23.90;60.30;;;;;;6140729;27;20079;-58
2022/06/03 12:51:59;;;;;;;0.55;0.50;;;23.70;60.40;;;;;;6166500;27;20173;-56
2022/06/03 12:55:05;;;;;;;0.40;0.40;;;24.00;60.80;;;;;;6108885;27;20058;-59
2022/06/03 12:58:37;;;;;;;0.50;0.50;;;23.90;61.00;;;;;;6122914;27;20047;-57
2022/06/03 13:01:48;;;;;;;0.50;0.50;;;23.90;61.50;;;;;;6112876;27;20200;-57
2022/06/03 13:05:09;;;;;;;0.35;0.35;;;24.00;61.90;;;;;;6131202;27;20055;-54
2022/06/03 13:08:31;;;;;;;0.60;0.60;;;24.00;62.10;;;;;;6152163;27;20043;-56
2022/06/03 13:11:45;;;;;;;0.40;0.40;;;23.80;62.20;;;;;;6161750;27;21086;-57
2022/06/03 13:14:46;;;;;;;0.65;0.60;;;23.90;62.50;;;;;;6145040;27;20171;-53
2022/06/03 13:17:54;;;;;;;1.00;0.57;;;24.00;62.50;;;;;;6122309;27;20430;-55
2022/06/03 13:21:14;;;;;;;0.73;0.50;;;24.00;62.70;;;;;;6094371;27;20053;-56
2022/06/03 13:24:25;;;;;;;0.50;0.50;;;23.90;62.70;;;;;;6132590;27;20111;-57
2022/06/03 13:27:30;;;;;;;0.50;0.40;;;24.10;62.90;;;;;;6141594;27;20166;-52
2022/06/03 13:30:35;;;;;;;0.57;0.50;;;24.10;62.80;;;;;;6150454;27;20053;-52
2022/06/03 13:34:07;;;;;;;1.95;0.70;;;24.00;63.20;;;;;;6157879;27;20052;-56
2022/06/03 13:37:27;;;;;;;0.77;0.70;;;24.00;62.70;;;;;;6098910;27;20071;-55
2022/06/03 13:40:34;;;;;;;0.63;0.60;;;23.90;62.70;;;;;;6141071;27;20039;-56
2022/06/03 13:43:36;;;;;;;0.50;0.50;;;24.10;62.80;;;;;;6149574;27;20035;-56
2022/06/03 13:46:42;;;;;;;0.43;0.40;;;24.00;62.60;;;;;;6144585;27;20040;-56
2022/06/03 13:49:49;;;;;;;0.50;0.50;;;24.00;62.50;;;;;;6154337;27;20039;-56
2022/06/03 13:52:56;;;;;;;;;;;24.00;62.40;;;;;;6123240;27;20050;-52
2022/06/03 13:56:06;;;;;;;0.47;0.47;;;24.10;62.30;;;;;;6138862;27;19928;-56
2022/06/03 13:59:15;;;;;;;0.47;0.47;;;24.10;62.20;;;;;;6141801;27;20804;-54
2022/06/03 14:02:26;;;;;;;0.60;0.45;;;24.10;62.10;;;;;;6102282;27;21241;-54
2022/06/03 14:05:31;;;;;;;0.50;0.40;;;24.10;62.10;;;;;;6063983;27;21107;-56
2022/06/03 14:08:36;;;;;;;0.50;0.50;;;24.00;61.90;;;;;;6080210;27;20291;-55
2022/06/03 14:11:43;;;;;;;0.90;0.50;;;24.20;62.00;;;;;;6093730;27;20235;-57
2022/06/03 14:14:57;;;;;;;6.43;1.02;;;24.00;61.90;;;;;;6097422;28;22773;-57
2022/06/03 14:17:59;;;;;;;0.77;0.70;;;24.00;61.80;;;;;;6050406;28;21236;-55
2022/06/03 14:21:01;;;;;;;0.40;0.40;;;24.10;61.80;;;;;;6053920;28;20121;-56
2022/06/03 14:24:11;;;;;;;0.95;0.40;;;24.40;61.90;;;;;;6036901;28;21668;-56
2022/06/03 14:27:20;;;;;;;0.50;0.40;;;24.20;61.80;;;;;;6069528;28;20183;-55
2022/06/03 14:30:40;;;;;;;0.75;0.50;;;24.20;61.80;;;;;;6092981;28;20044;-59
2022/06/03 14:33:53;;;;;;;0.63;0.50;;;24.30;61.90;;;;;;6103063;28;20057;-59
2022/06/03 14:36:58;;;;;;;0.52;0.52;;;24.00;61.60;;;;;;6074401;28;20044;-60
2022/06/03 14:40:05;;;;;;;1.20;0.68;;;24.20;61.70;;;;;;6062759;28;20046;-52
2022/06/03 14:43:09;;;;;;;0.57;0.55;;;24.20;61.70;;;;;;6088475;28;20594;-57
2022/06/03 14:46:16;;;;;;;0.47;0.43;;;24.00;61.60;;;;;;6033337;28;21546;-54
2022/06/03 14:49:24;;;;;;;0.50;0.40;;;24.30;61.80;;;;;;6075015;28;22327;-54
2022/06/03 14:52:32;;;;;;;0.70;0.45;;;24.30;61.80;;;;;;6066760;28;20067;-56
2022/06/03 14:55:37;;;;;;;0.68;0.65;;;24.30;61.80;;;;;;6112505;28;20089;-54
2022/06/03 14:58:43;;;;;;;1.50;0.68;;;24.30;61.80;;;;;;6136658;28;20057;-54
2022/06/03 15:01:49;;;;;;;0.70;0.55;;;24.30;61.70;;;;;;6124043;28;20047;-55
2022/06/03 15:04:56;;;;;;;1.45;0.80;;;24.20;61.70;;;;;;6096697;28;20092;-54
2022/06/03 15:08:07;;;;;;;0.35;0.35;;;24.30;61.60;;;;;;6109445;28;20125;-54
2022/06/03 15:11:14;;;;;;;0.73;0.40;;;24.30;61.80;;;;;;6110990;28;20050;-53
2022/06/03 15:14:19;;;;;;;0.75;0.45;;;24.30;62.00;;;;;;6115034;28;20055;-52
2022/06/03 15:17:25;;;;;;;1.27;0.73;;;24.40;62.30;;;;;;6099658;28;20124;-50
2022/06/03 15:20:27;;;;;;;0.70;0.50;;;24.30;62.50;;;;;;6130044;28;20205;-53
2022/06/03 15:23:28;;;;;;;0.60;0.60;;;24.20;62.60;;;;;;6175855;28;20050;-54
2022/06/03 15:26:36;;;;;;;0.40;0.40;;;24.30;63.00;;;;;;6145847;28;20055;-56
2022/06/03 15:29:37;;;;;;;0.55;0.50;;;24.20;63.20;;;;;;6173699;28;20048;-51
2022/06/03 15:32:42;;;;;;;0.60;0.60;;;24.30;63.40;;;;;;6162290;28;20036;-50
2022/06/03 15:35:44;;;;;;;1.25;0.65;;;24.30;63.60;;;;;;6184440;28;20105;-53
2022/06/03 15:38:52;;;;;;;0.85;0.55;;;24.30;63.70;;;;;;6199129;28;20217;-52
2022/06/03 15:42:00;;;;;;;0.68;0.52;;;24.30;64.10;;;;;;6188749;28;20077;-55
2022/06/03 15:45:04;;;;;;;0.68;0.55;;;24.40;64.40;;;;;;6166054;28;20193;-57
2022/06/03 15:48:09;;;;;;;0.73;0.50;;;24.40;64.50;;;;;;6179271;28;21244;-55
2022/06/03 15:51:18;;;;;;;0.40;0.40;;;24.30;64.80;;;;;;6187150;28;20047;-52
2022/06/03 15:54:22;;;;;;;1.35;0.47;;;24.30;64.40;;;;;;6190319;27;20170;-56
2022/06/03 15:57:34;;;;;;;0.55;0.35;;;24.30;65.10;;;;;;6178854;28;20051;-54
2022/06/03 16:00:41;;;;;;;0.50;0.50;;;24.30;65.40;;;;;;6200384;28;20040;-55
2022/06/03 16:03:55;;;;;;;4.00;0.50;;;24.30;65.50;;;;;;6213745;28;20055;-55
2022/06/03 16:07:02;;;;;;;0.82;0.47;;;24.40;65.70;;;;;;6199420;28;20051;-50
2022/06/03 16:10:10;;;;;;;0.30;0.30;;;24.40;65.60;;;;;;6207659;28;20043;-55
2022/06/03 16:13:32;;;;;;;0.60;0.50;;;24.20;65.30;;;;;;6209982;28;20097;-53
2022/06/03 16:16:55;;;;;;;0.50;0.30;;;24.30;65.10;;;;;;6216347;28;20039;-56
2022/06/03 16:20:07;;;;;;;0.40;0.20;;;24.30;64.50;;;;;;6207287;28;20158;-51
2022/06/03 16:23:25;;;;;;;0.20;0.20;;;24.30;64.10;;;;;;6211028;28;20047;-51
2022/06/03 16:26:33;;;;;;;0.30;0.20;;;24.30;63.70;;;;;;6207166;28;20044;-51
2022/06/03 16:29:49;;;;;;;0.40;0.25;;;24.20;63.40;;;;;;6218943;28;20051;-55
2022/06/03 16:32:59;;;;;;;0.30;0.20;;;24.20;63.40;;;;;;6219888;28;20174;-52
2022/06/03 16:36:12;;;;;;;0.45;0.30;;;24.30;63.30;;;;;;6224790;28;21006;-51
2022/06/03 16:39:25;;;;;;;1.35;0.30;;;24.20;63.10;;;;;;6238200;28;20036;-54
2022/06/03 16:42:35;;;;;;;0.38;0.30;;;24.30;63.00;;;;;;6246317;28;20040;-54
2022/06/03 16:49:28;;;;;;;0.30;0.30;;;24.20;62.70;;;;;;6239901;28;20117;-55
2022/06/03 16:52:36;;;;;;;0.28;0.20;;;24.20;62.60;;;;;;6252970;28;20120;-52
2022/06/03 16:55:46;;;;;;;0.22;0.20;;;24.20;62.60;;;;;;6235960;28;20729;-52
2022/06/03 16:58:50;;;;;;;0.10;0.10;;;24.10;62.50;;;;;;6235743;28;20044;-54
2022/06/03 17:01:52;;;;;;;0.40;0.30;;;24.10;62.40;;;;;;6238035;28;20050;-54
2022/06/03 17:04:55;;;;;;;0.30;0.30;;;24.40;62.50;;;;;;6233156;28;20047;-50
2022/06/03 17:08:00;;;;;;;0.20;0.20;;;24.20;62.30;;;;;;6240735;28;20654;-50
2022/06/03 17:11:04;;;;;;;0.10;0.10;;;24.20;62.30;;;;;;6223555;28;20047;-54
2022/06/03 17:14:11;;;;;;;0.25;0.25;;;24.20;62.30;;;;;;6228911;28;20823;-50
2022/06/03 17:17:19;;;;;;;0.40;0.20;;;24.10;62.10;;;;;;6230132;28;20496;-51
2022/06/03 17:20:38;;;;;;;0.52;0.30;;;24.20;62.20;;;;;;6230340;28;20215;-49